BKPRLATI

Guest
Details From BKPR - Pristina Intl
To LATI - Tirana Rinas
Flight Number -
Tags generated
Created
Modified
Stats Distance 91 nm / 169 km
Max Altitude 0 ft / 0 m
Waypoints 3
Social Downloads 2
Likes 0
Share VATSIM

Download

Looking for another format? Having issues loading an existing format? Contact us
Advertisement - Login to hide

Notes

Basic altitude profile: - Ascent Rate: 2500ft/min - Ascent Speed: 250kts - Cruise Altitude: 35000ft - Cruise Speed: 420kts - Descent Rate: 1500ft/min - Descent Speed: 250kts Options: - Use NATs: yes - Use PACOTS: yes - Use low airways: yes - Use high airways: yes

Route

BKPR TRN LATI

ID Type Via Altitude Latitude Longitude Leg Dist Tot Dist Heading (true) Name
O BKPR APT - 0 ft / 0 m 42.57453˚ 21.03568˚ - 0 nm - Pristina Intl
TRN VOR - 0 ft / 0 m 41.41612˚ 19.71819˚ 91 nm 91 nm 221° / 220° TIRANA VOR-DME
O LATI APT - 0 ft / 0 m 41.41473˚ 19.72057˚ 0 nm 91 nm 128° / 128° Tirana Rinas

Altitude Profile

Advertisement - Login to hide

BKPR

Details ICAO BKPR
Name Pristina Intl
Region Kosovo
Timezone Europe/Belgrade (UTC+1.0)
Stats Elevation 1,789 ft / 545 m (AMSL)
Location 42.574531° 21.035685°
Runways 1
Magnetic Variation 4.552° E

METAR

BKPR 150430Z 30005KT 9999 SCT040 BKN080 10/02 Q1010 NOSIG RMK 17010095

Decode

TAF

TAF BKPR 141730Z 1418/1518 20008KT 9999 BKN060 TEMPO 1509/1518 18020KT

Decode

Departure Runways

ID Width Length Bearing (true) Bearing (mag) Surface Threshold Offset Overrun Length
17 148 ft / 45 m 8,175 ft / 2,492 m 175.71° 171.16° Asphalt 0 ft / 0 m 98 ft / 30 m
35 148 ft / 45 m 8,175 ft / 2,492 m 355.71° 351.16° Asphalt 0 ft / 0 m 98 ft / 30 m

LATI

Details ICAO LATI (TIA)
Name Tirana Rinas
Region Albania
Timezone Europe/Tirane (UTC+1.0)
Stats Elevation 126 ft / 38 m (AMSL)
Location 41.414732° 19.720569°
Runways 1
Magnetic Variation 4.232° E

METAR

LATI 150420Z 17007KT 9999 BKN048 OVC059 10/06 Q1013 NOSIG

Decode

TAF

TAF TAF LATI 141700Z 1418/1518 14008KT 9999 -RA SCT030 BKN060 TEMPO 1510/1518 18016KT

Decode

Destination Runways

ID Width Length Bearing (true) Bearing (mag) Surface Threshold Offset Overrun Length
18 148 ft / 45 m 8,984 ft / 2,738 m 174.31° 170.08° Asphalt 500 ft / 152 m 0 ft / 0 m
36 148 ft / 45 m 8,984 ft / 2,738 m 354.31° 350.08° Asphalt 500 ft / 152 m 0 ft / 0 m

Popular Alternatives